sensor_id;sensor_type;location;lat;lon;timestamp;temperature;humidity
2002;DHT22;1003;48.002;7.788;2023-11-21T00:07:33;8.90;99.90
2002;DHT22;1003;48.002;7.788;2023-11-21T08:15:58;8.80;99.90
2002;DHT22;1003;48.002;7.788;2023-11-21T08:20:56;8.80;99.90
2002;DHT22;1003;48.002;7.788;2023-11-21T08:23:25;8.70;99.90
2002;DHT22;1003;48.002;7.788;2023-11-21T08:55:27;8.70;99.90
2002;DHT22;1003;48.002;7.788;2023-11-21T08:57:55;9.40;99.90
2002;DHT22;1003;48.002;7.788;2023-11-21T09:00:24;9.40;99.90
2002;DHT22;1003;48.002;7.788;2023-11-21T09:02:51;9.40;99.90
2002;DHT22;1003;48.002;7.788;2023-11-21T09:05:18;9.50;99.90
2002;DHT22;1003;48.002;7.788;2023-11-21T09:07:46;9.70;99.90
2002;DHT22;1003;48.002;7.788;2023-11-21T09:10:14;9.60;99.90
2002;DHT22;1003;48.002;7.788;2023-11-21T09:12:41;9.50;99.90
2002;DHT22;1003;48.002;7.788;2023-11-21T09:15:10;9.50;99.90
2002;DHT22;1003;48.002;7.788;2023-11-21T09:17:38;9.50;99.90
2002;DHT22;1003;48.002;7.788;2023-11-21T09:20:07;9.50;99.90
2002;DHT22;1003;48.002;7.788;2023-11-21T09:22:35;9.50;99.90
2002;DHT22;1003;48.002;7.788;2023-11-21T09:25:04;9.40;99.90
2002;DHT22;1003;48.002;7.788;2023-11-21T09:27:34;9.40;99.90
2002;DHT22;1003;48.002;7.788;2023-11-21T09:30:06;9.40;99.90
2002;DHT22;1003;48.002;7.788;2023-11-21T09:32:37;9.40;99.90
2002;DHT22;1003;48.002;7.788;2023-11-21T09:35:06;9.40;99.90
2002;DHT22;1003;48.002;7.788;2023-11-21T09:37:34;9.50;99.90
2002;DHT22;1003;48.002;7.788;2023-11-21T09:40:03;9.50;99.90
2002;DHT22;1003;48.002;7.788;2023-11-21T09:42:39;9.50;99.90
2002;DHT22;1003;48.002;7.788;2023-11-21T09:45:17;9.60;99.90
2002;DHT22;1003;48.002;7.788;2023-11-21T09:47:52;9.50;99.90
2002;DHT22;1003;48.002;7.788;2023-11-21T09:50:25;9.50;99.90
2002;DHT22;1003;48.002;7.788;2023-11-21T09:52:58;9.50;99.90
2002;DHT22;1003;48.002;7.788;2023-11-21T09:55:36;9.40;99.90
2002;DHT22;1003;48.002;7.788;2023-11-21T09:58:06;9.40;99.90
2002;DHT22;1003;48.002;7.788;2023-11-21T10:00:39;9.30;99.90
2002;DHT22;1003;48.002;7.788;2023-11-21T10:03:09;9.30;99.90
2002;DHT22;1003;48.002;7.788;2023-11-21T10:05:37;9.40;99.90
2002;DHT22;1003;48.002;7.788;2023-11-21T10:08:07;9.40;99.90
2002;DHT22;1003;48.002;7.788;2023-11-21T10:10:36;9.50;99.90
2002;DHT22;1003;48.002;7.788;2023-11-21T10:13:07;9.60;99.90
2002;DHT22;1003;48.002;7.788;2023-11-21T10:15:42;9.60;99.90
2002;DHT22;1003;48.002;7.788;2023-11-21T10:18:22;9.50;99.90
2002;DHT22;1003;48.002;7.788;2023-11-21T10:20:51;9.40;99.90
2002;DHT22;1003;48.002;7.788;2023-11-21T10:23:19;9.30;99.90
2002;DHT22;1003;48.002;7.788;2023-11-21T10:25:47;9.30;99.90
2002;DHT22;1003;48.002;7.788;2023-11-21T10:28:14;9.40;99.90
2002;DHT22;1003;48.002;7.788;2023-11-21T10:30:41;9.40;99.90
2002;DHT22;1003;48.002;7.788;2023-11-21T10:33:08;9.40;99.90
2002;DHT22;1003;48.002;7.788;2023-11-21T10:35:46;9.50;99.90
2002;DHT22;1003;48.002;7.788;2023-11-21T10:38:16;9.40;99.90
2002;DHT22;1003;48.002;7.788;2023-11-21T10:40:44;9.50;99.90
2002;DHT22;1003;48.002;7.788;2023-11-21T10:43:13;9.70;99.90
2002;DHT22;1003;48.002;7.788;2023-11-21T10:45:41;9.70;99.90
2002;DHT22;1003;48.002;7.788;2023-11-21T10:48:10;9.70;99.90
2002;DHT22;1003;48.002;7.788;2023-11-21T10:50:41;9.70;99.90
2002;DHT22;1003;48.002;7.788;2023-11-21T10:53:10;9.60;99.90
2002;DHT22;1003;48.002;7.788;2023-11-21T10:55:38;9.30;99.90
2002;DHT22;1003;48.002;7.788;2023-11-21T10:58:06;9.30;99.90
2002;DHT22;1003;48.002;7.788;2023-11-21T11:00:36;9.30;99.90
2002;DHT22;1003;48.002;7.788;2023-11-21T11:03:06;9.20;99.90
2002;DHT22;1003;48.002;7.788;2023-11-21T11:05:41;9.30;99.90
2002;DHT22;1003;48.002;7.788;2023-11-21T11:08:19;9.20;99.90
2002;DHT22;1003;48.002;7.788;2023-11-21T11:10:51;9.20;99.90
2002;DHT22;1003;48.002;7.788;2023-11-21T11:13:19;9.10;99.90
2002;DHT22;1003;48.002;7.788;2023-11-21T11:15:48;9.10;99.90
2002;DHT22;1003;48.002;7.788;2023-11-21T11:18:17;9.10;99.90
2002;DHT22;1003;48.002;7.788;2023-11-21T11:20:48;9.10;99.90
2002;DHT22;1003;48.002;7.788;2023-11-21T11:23:32;9.10;99.90
2002;DHT22;1003;48.002;7.788;2023-11-21T11:26:20;9.10;99.90
2002;DHT22;1003;48.002;7.788;2023-11-21T11:29:03;9.20;99.90
2002;DHT22;1003;48.002;7.788;2023-11-21T11:31:50;9.30;99.90
2002;DHT22;1003;48.002;7.788;2023-11-21T11:34:29;9.10;99.90
2002;DHT22;1003;48.002;7.788;2023-11-21T11:37:02;9.10;99.90
2002;DHT22;1003;48.002;7.788;2023-11-21T11:39:35;9.00;99.90
2002;DHT22;1003;48.002;7.788;2023-11-21T11:42:05;9.00;99.90
2002;DHT22;1003;48.002;7.788;2023-11-21T11:44:51;9.10;99.90
2002;DHT22;1003;48.002;7.788;2023-11-21T11:47:22;9.10;99.90
2002;DHT22;1003;48.002;7.788;2023-11-21T11:50:02;9.00;99.90
2002;DHT22;1003;48.002;7.788;2023-11-21T11:52:37;9.00;99.90
2002;DHT22;1003;48.002;7.788;2023-11-21T11:55:09;9.00;99.90
2002;DHT22;1003;48.002;7.788;2023-11-21T11:57:37;9.10;99.90
2002;DHT22;1003;48.002;7.788;2023-11-21T12:00:16;9.10;99.90
2002;DHT22;1003;48.002;7.788;2023-11-21T12:02:51;9.00;99.90
2002;DHT22;1003;48.002;7.788;2023-11-21T12:05:20;8.90;99.90
2002;DHT22;1003;48.002;7.788;2023-11-21T12:08:03;8.90;99.90
2002;DHT22;1003;48.002;7.788;2023-11-21T12:10:33;8.90;99.90
2002;DHT22;1003;48.002;7.788;2023-11-21T12:13:03;8.70;99.90
2002;DHT22;1003;48.002;7.788;2023-11-21T12:15:33;8.80;99.90
2002;DHT22;1003;48.002;7.788;2023-11-21T12:18:00;9.00;99.90
2002;DHT22;1003;48.002;7.788;2023-11-21T12:20:28;9.10;99.90
2002;DHT22;1003;48.002;7.788;2023-11-21T12:22:57;9.30;99.90
2002;DHT22;1003;48.002;7.788;2023-11-21T12:25:26;9.30;99.90
2002;DHT22;1003;48.002;7.788;2023-11-21T12:27:56;9.30;99.90
2002;DHT22;1003;48.002;7.788;2023-11-21T12:30:25;9.60;99.90
2002;DHT22;1003;48.002;7.788;2023-11-21T12:32:54;9.70;99.90
2002;DHT22;1003;48.002;7.788;2023-11-21T12:35:24;9.70;99.90
2002;DHT22;1003;48.002;7.788;2023-11-21T12:37:53;9.80;99.90
2002;DHT22;1003;48.002;7.788;2023-11-21T12:40:22;9.70;99.90
2002;DHT22;1003;48.002;7.788;2023-11-21T12:42:51;9.60;99.90
2002;DHT22;1003;48.002;7.788;2023-11-21T12:45:22;9.60;99.90
2002;DHT22;1003;48.002;7.788;2023-11-21T12:47:52;9.50;99.90
2002;DHT22;1003;48.002;7.788;2023-11-21T12:50:23;9.60;99.90
2002;DHT22;1003;48.002;7.788;2023-11-21T12:52:57;9.60;99.90
2002;DHT22;1003;48.002;7.788;2023-11-21T12:55:26;9.50;99.90
2002;DHT22;1003;48.002;7.788;2023-11-21T12:57:57;9.70;99.90
2002;DHT22;1003;48.002;7.788;2023-11-21T13:00:36;9.70;99.90
2002;DHT22;1003;48.002;7.788;2023-11-21T13:03:06;9.70;99.90
2002;DHT22;1003;48.002;7.788;2023-11-21T13:05:36;9.70;99.90
2002;DHT22;1003;48.002;7.788;2023-11-21T13:08:06;9.60;99.90
2002;DHT22;1003;48.002;7.788;2023-11-21T13:10:36;9.60;99.90
2002;DHT22;1003;48.002;7.788;2023-11-21T13:13:06;9.50;99.90
2002;DHT22;1003;48.002;7.788;2023-11-21T13:15:39;9.50;99.90
2002;DHT22;1003;48.002;7.788;2023-11-21T13:18:07;9.50;99.90
2002;DHT22;1003;48.002;7.788;2023-11-21T13:20:36;9.40;99.90
2002;DHT22;1003;48.002;7.788;2023-11-21T13:23:08;9.50;99.90
2002;DHT22;1003;48.002;7.788;2023-11-21T13:25:37;9.50;99.90
2002;DHT22;1003;48.002;7.788;2023-11-21T13:28:06;9.40;99.90
2002;DHT22;1003;48.002;7.788;2023-11-21T13:30:36;9.50;99.90
2002;DHT22;1003;48.002;7.788;2023-11-21T13:33:06;9.50;99.90
2002;DHT22;1003;48.002;7.788;2023-11-21T13:35:36;9.50;99.90
2002;DHT22;1003;48.002;7.788;2023-11-21T13:38:08;9.50;99.90
2002;DHT22;1003;48.002;7.788;2023-11-21T13:40:39;9.40;99.90
2002;DHT22;1003;48.002;7.788;2023-11-21T13:43:10;9.50;99.90
2002;DHT22;1003;48.002;7.788;2023-11-21T13:45:40;9.50;99.90
2002;DHT22;1003;48.002;7.788;2023-11-21T13:48:09;9.50;99.90
2002;DHT22;1003;48.002;7.788;2023-11-21T13:50:39;9.50;99.90
2002;DHT22;1003;48.002;7.788;2023-11-21T13:53:14;9.40;99.90
2002;DHT22;1003;48.002;7.788;2023-11-21T13:55:47;9.40;99.90
2002;DHT22;1003;48.002;7.788;2023-11-21T13:58:14;9.40;99.90
2002;DHT22;1003;48.002;7.788;2023-11-21T14:00:49;9.40;99.90
2002;DHT22;1003;48.002;7.788;2023-11-21T14:03:22;9.30;99.90
2002;DHT22;1003;48.002;7.788;2023-11-21T14:05:58;9.30;99.90
2002;DHT22;1003;48.002;7.788;2023-11-21T14:08:26;9.20;99.90
2002;DHT22;1003;48.002;7.788;2023-11-21T14:10:54;9.20;99.90
2002;DHT22;1003;48.002;7.788;2023-11-21T14:13:23;9.30;99.90
2002;DHT22;1003;48.002;7.788;2023-11-21T14:15:52;9.30;99.90
2002;DHT22;1003;48.002;7.788;2023-11-21T14:18:23;9.20;99.90
2002;DHT22;1003;48.002;7.788;2023-11-21T14:20:55;9.20;99.90
2002;DHT22;1003;48.002;7.788;2023-11-21T14:23:22;9.10;99.90
2002;DHT22;1003;48.002;7.788;2023-11-21T14:25:50;9.20;99.90
2002;DHT22;1003;48.002;7.788;2023-11-21T14:28:17;9.00;99.90
2002;DHT22;1003;48.002;7.788;2023-11-21T14:30:47;9.00;99.90
2002;DHT22;1003;48.002;7.788;2023-11-21T14:33:15;9.00;99.90
2002;DHT22;1003;48.002;7.788;2023-11-21T14:35:42;9.00;99.90
2002;DHT22;1003;48.002;7.788;2023-11-21T14:38:10;8.90;99.90
2002;DHT22;1003;48.002;7.788;2023-11-21T14:40:39;8.90;99.90
2002;DHT22;1003;48.002;7.788;2023-11-21T14:43:06;8.90;99.90
2002;DHT22;1003;48.002;7.788;2023-11-21T14:45:35;8.90;99.90
2002;DHT22;1003;48.002;7.788;2023-11-21T14:48:02;8.90;99.90
2002;DHT22;1003;48.002;7.788;2023-11-21T14:50:35;8.90;99.90
2002;DHT22;1003;48.002;7.788;2023-11-21T14:53:35;8.80;99.90
2002;DHT22;1003;48.002;7.788;2023-11-21T14:56:19;8.80;99.90
2002;DHT22;1003;48.002;7.788;2023-11-21T14:58:53;8.80;99.90
2002;DHT22;1003;48.002;7.788;2023-11-21T15:01:20;8.80;99.90
2002;DHT22;1003;48.002;7.788;2023-11-21T15:03:59;8.80;99.90
2002;DHT22;1003;48.002;7.788;2023-11-21T15:06:26;8.70;99.90
2002;DHT22;1003;48.002;7.788;2023-11-21T15:08:57;8.70;99.90
2002;DHT22;1003;48.002;7.788;2023-11-21T15:11:38;8.70;99.90
2002;DHT22;1003;48.002;7.788;2023-11-21T15:14:05;8.70;99.90
2002;DHT22;1003;48.002;7.788;2023-11-21T15:16:33;8.70;99.90
2002;DHT22;1003;48.002;7.788;2023-11-21T15:19:04;8.70;99.90
2002;DHT22;1003;48.002;7.788;2023-11-21T15:21:33;8.70;99.90
2002;DHT22;1003;48.002;7.788;2023-11-21T15:24:00;8.70;99.90
2002;DHT22;1003;48.002;7.788;2023-11-21T15:26:28;8.70;99.90
2002;DHT22;1003;48.002;7.788;2023-11-21T15:28:55;8.60;99.90
2002;DHT22;1003;48.002;7.788;2023-11-21T15:31:22;8.60;99.90
2002;DHT22;1003;48.002;7.788;2023-11-21T15:33:50;8.70;99.90
2002;DHT22;1003;48.002;7.788;2023-11-21T15:36:18;8.70;99.90
2002;DHT22;1003;48.002;7.788;2023-11-21T15:38:46;8.70;99.90
2002;DHT22;1003;48.002;7.788;2023-11-21T15:41:13;8.70;99.90
2002;DHT22;1003;48.002;7.788;2023-11-21T15:43:40;8.60;99.90
2002;DHT22;1003;48.002;7.788;2023-11-21T15:46:07;8.60;99.90
2002;DHT22;1003;48.002;7.788;2023-11-21T15:48:35;8.60;99.90
2002;DHT22;1003;48.002;7.788;2023-11-21T15:51:04;8.70;99.90
2002;DHT22;1003;48.002;7.788;2023-11-21T15:53:33;8.60;99.90
2002;DHT22;1003;48.002;7.788;2023-11-21T15:56:03;8.60;99.90
2002;DHT22;1003;48.002;7.788;2023-11-21T15:58:36;8.60;99.90
2002;DHT22;1003;48.002;7.788;2023-11-21T16:01:03;8.60;99.90
2002;DHT22;1003;48.002;7.788;2023-11-21T16:03:30;8.60;99.90
2002;DHT22;1003;48.002;7.788;2023-11-21T16:05:58;8.60;99.90
2002;DHT22;1003;48.002;7.788;2023-11-21T16:08:25;8.50;99.90
2002;DHT22;1003;48.002;7.788;2023-11-21T16:10:52;8.50;99.90
2002;DHT22;1003;48.002;7.788;2023-11-21T16:13:20;8.50;99.90
2002;DHT22;1003;48.002;7.788;2023-11-21T16:15:48;8.50;99.90
2002;DHT22;1003;48.002;7.788;2023-11-21T16:18:15;8.50;99.90
2002;DHT22;1003;48.002;7.788;2023-11-21T16:20:42;8.50;99.90
2002;DHT22;1003;48.002;7.788;2023-11-21T16:23:09;8.50;99.90
2002;DHT22;1003;48.002;7.788;2023-11-21T16:25:36;8.50;99.90
2002;DHT22;1003;48.002;7.788;2023-11-21T16:28:03;8.50;99.90
2002;DHT22;1003;48.002;7.788;2023-11-21T16:30:32;8.40;99.90
2002;DHT22;1003;48.002;7.788;2023-11-21T16:33:00;8.40;99.90
2002;DHT22;1003;48.002;7.788;2023-11-21T16:35:28;8.40;99.90
2002;DHT22;1003;48.002;7.788;2023-11-21T16:37:55;8.40;99.90
2002;DHT22;1003;48.002;7.788;2023-11-21T16:40:22;8.40;99.90
2002;DHT22;1003;48.002;7.788;2023-11-21T16:42:50;8.40;99.90
2002;DHT22;1003;48.002;7.788;2023-11-21T16:45:17;8.40;99.90
2002;DHT22;1003;48.002;7.788;2023-11-21T16:47:45;8.30;99.90
2002;DHT22;1003;48.002;7.788;2023-11-21T16:50:12;8.30;99.90
2002;DHT22;1003;48.002;7.788;2023-11-21T16:52:40;8.30;99.90
2002;DHT22;1003;48.002;7.788;2023-11-21T16:55:08;8.30;99.90
2002;DHT22;1003;48.002;7.788;2023-11-21T16:57:37;8.30;99.90
2002;DHT22;1003;48.002;7.788;2023-11-21T17:00:05;8.30;99.90
2002;DHT22;1003;48.002;7.788;2023-11-21T17:02:37;8.30;99.90
2002;DHT22;1003;48.002;7.788;2023-11-21T17:05:06;8.30;99.90
2002;DHT22;1003;48.002;7.788;2023-11-21T17:07:33;8.30;99.90
2002;DHT22;1003;48.002;7.788;2023-11-21T17:10:00;8.30;99.90
2002;DHT22;1003;48.002;7.788;2023-11-21T17:12:28;8.30;99.90
2002;DHT22;1003;48.002;7.788;2023-11-21T17:14:55;8.30;99.90
2002;DHT22;1003;48.002;7.788;2023-11-21T17:17:22;8.20;99.90
2002;DHT22;1003;48.002;7.788;2023-11-21T17:19:49;8.20;99.90
2002;DHT22;1003;48.002;7.788;2023-11-21T17:22:17;8.20;99.90
2002;DHT22;1003;48.002;7.788;2023-11-21T17:24:45;8.30;99.90
2002;DHT22;1003;48.002;7.788;2023-11-21T17:27:12;8.30;99.90
2002;DHT22;1003;48.002;7.788;2023-11-21T17:29:39;8.30;99.90
2002;DHT22;1003;48.002;7.788;2023-11-21T17:32:06;8.30;99.90
2002;DHT22;1003;48.002;7.788;2023-11-21T17:34:33;8.30;99.90
2002;DHT22;1003;48.002;7.788;2023-11-21T17:37:00;8.30;99.90
2002;DHT22;1003;48.002;7.788;2023-11-21T17:39:29;8.30;99.90
2002;DHT22;1003;48.002;7.788;2023-11-21T17:41:56;8.20;99.90
2002;DHT22;1003;48.002;7.788;2023-11-21T17:44:23;8.20;99.90
2002;DHT22;1003;48.002;7.788;2023-11-21T17:46:50;8.20;99.90
2002;DHT22;1003;48.002;7.788;2023-11-21T17:49:17;8.20;99.90
2002;DHT22;1003;48.002;7.788;2023-11-21T17:51:44;8.20;99.90
2002;DHT22;1003;48.002;7.788;2023-11-21T17:54:12;8.20;99.90
2002;DHT22;1003;48.002;7.788;2023-11-21T17:56:40;8.20;99.90
2002;DHT22;1003;48.002;7.788;2023-11-21T17:59:07;8.20;99.90
2002;DHT22;1003;48.002;7.788;2023-11-21T18:01:38;8.20;99.90
2002;DHT22;1003;48.002;7.788;2023-11-21T18:04:07;8.20;99.90
2002;DHT22;1003;48.002;7.788;2023-11-21T18:06:35;8.30;99.90
2002;DHT22;1003;48.002;7.788;2023-11-21T18:09:03;8.20;99.90
2002;DHT22;1003;48.002;7.788;2023-11-21T18:11:34;8.30;99.90
2002;DHT22;1003;48.002;7.788;2023-11-21T18:14:02;8.30;99.90
2002;DHT22;1003;48.002;7.788;2023-11-21T18:16:34;8.30;99.90
2002;DHT22;1003;48.002;7.788;2023-11-21T18:19:03;8.30;99.90
2002;DHT22;1003;48.002;7.788;2023-11-21T18:21:30;8.40;99.90
2002;DHT22;1003;48.002;7.788;2023-11-21T18:23:57;8.30;99.90
2002;DHT22;1003;48.002;7.788;2023-11-21T18:26:23;8.30;99.90
2002;DHT22;1003;48.002;7.788;2023-11-21T18:28:50;8.30;99.90
2002;DHT22;1003;48.002;7.788;2023-11-21T18:31:19;8.30;99.90
2002;DHT22;1003;48.002;7.788;2023-11-21T18:33:46;8.30;99.90
2002;DHT22;1003;48.002;7.788;2023-11-21T18:36:13;8.30;99.90
2002;DHT22;1003;48.002;7.788;2023-11-21T18:38:40;8.20;99.90
2002;DHT22;1003;48.002;7.788;2023-11-21T18:41:07;8.20;99.90
2002;DHT22;1003;48.002;7.788;2023-11-21T18:43:34;8.20;99.90
2002;DHT22;1003;48.002;7.788;2023-11-21T18:46:01;8.20;99.90
2002;DHT22;1003;48.002;7.788;2023-11-21T18:48:30;8.20;99.90
2002;DHT22;1003;48.002;7.788;2023-11-21T18:50:57;8.30;99.90
2002;DHT22;1003;48.002;7.788;2023-11-21T18:53:24;8.20;99.90
2002;DHT22;1003;48.002;7.788;2023-11-21T18:55:53;8.20;99.90
2002;DHT22;1003;48.002;7.788;2023-11-21T18:58:21;8.20;99.90
2002;DHT22;1003;48.002;7.788;2023-11-21T19:00:48;8.20;99.90
2002;DHT22;1003;48.002;7.788;2023-11-21T19:03:15;8.20;99.90
2002;DHT22;1003;48.002;7.788;2023-11-21T19:05:44;8.20;99.90
2002;DHT22;1003;48.002;7.788;2023-11-21T19:08:10;8.20;99.90
2002;DHT22;1003;48.002;7.788;2023-11-21T19:10:37;8.20;99.90
2002;DHT22;1003;48.002;7.788;2023-11-21T19:13:05;8.20;99.90
2002;DHT22;1003;48.002;7.788;2023-11-21T19:15:32;8.20;99.90
2002;DHT22;1003;48.002;7.788;2023-11-21T19:17:59;8.10;99.90
2002;DHT22;1003;48.002;7.788;2023-11-21T19:20:26;8.10;99.90
2002;DHT22;1003;48.002;7.788;2023-11-21T19:22:54;8.10;99.90
2002;DHT22;1003;48.002;7.788;2023-11-21T19:25:21;8.20;99.90
2002;DHT22;1003;48.002;7.788;2023-11-21T19:27:48;8.20;99.90
2002;DHT22;1003;48.002;7.788;2023-11-21T19:30:16;8.20;99.90
2002;DHT22;1003;48.002;7.788;2023-11-21T19:32:43;8.20;99.90
2002;DHT22;1003;48.002;7.788;2023-11-21T19:35:10;8.20;99.90
2002;DHT22;1003;48.002;7.788;2023-11-21T19:37:37;8.20;99.90
2002;DHT22;1003;48.002;7.788;2023-11-21T19:40:07;8.20;99.90
2002;DHT22;1003;48.002;7.788;2023-11-21T19:42:34;8.20;99.90
2002;DHT22;1003;48.002;7.788;2023-11-21T19:45:04;8.20;99.90
2002;DHT22;1003;48.002;7.788;2023-11-21T19:47:32;8.20;99.90
2002;DHT22;1003;48.002;7.788;2023-11-21T19:50:04;8.20;99.90
2002;DHT22;1003;48.002;7.788;2023-11-21T19:52:34;8.20;99.90
2002;DHT22;1003;48.002;7.788;2023-11-21T19:55:01;8.20;99.90
2002;DHT22;1003;48.002;7.788;2023-11-21T19:57:30;8.20;99.90
2002;DHT22;1003;48.002;7.788;2023-11-21T19:59:57;8.20;99.90
2002;DHT22;1003;48.002;7.788;2023-11-21T20:02:24;8.20;99.90
2002;DHT22;1003;48.002;7.788;2023-11-21T20:04:51;8.10;99.90
2002;DHT22;1003;48.002;7.788;2023-11-21T20:07:18;8.10;99.90
2002;DHT22;1003;48.002;7.788;2023-11-21T20:09:46;8.00;99.90
2002;DHT22;1003;48.002;7.788;2023-11-21T20:12:14;8.00;99.90
2002;DHT22;1003;48.002;7.788;2023-11-21T20:14:44;8.00;99.90
2002;DHT22;1003;48.002;7.788;2023-11-21T20:17:12;7.90;99.90
2002;DHT22;1003;48.002;7.788;2023-11-21T20:19:40;7.80;99.90
2002;DHT22;1003;48.002;7.788;2023-11-21T20:22:08;7.80;99.90
2002;DHT22;1003;48.002;7.788;2023-11-21T20:24:35;7.90;99.90
2002;DHT22;1003;48.002;7.788;2023-11-21T20:27:02;7.90;99.90
2002;DHT22;1003;48.002;7.788;2023-11-21T20:29:30;7.90;99.90
2002;DHT22;1003;48.002;7.788;2023-11-21T20:32:00;7.90;99.90
2002;DHT22;1003;48.002;7.788;2023-11-21T20:34:27;7.90;99.90
2002;DHT22;1003;48.002;7.788;2023-11-21T20:36:54;7.90;99.90
2002;DHT22;1003;48.002;7.788;2023-11-21T20:39:21;7.90;99.90
2002;DHT22;1003;48.002;7.788;2023-11-21T20:41:48;7.80;99.90
2002;DHT22;1003;48.002;7.788;2023-11-21T20:44:15;7.80;99.90
2002;DHT22;1003;48.002;7.788;2023-11-21T20:46:43;7.80;99.90
2002;DHT22;1003;48.002;7.788;2023-11-21T20:49:13;7.90;99.90
2002;DHT22;1003;48.002;7.788;2023-11-21T20:51:41;7.80;99.90
2002;DHT22;1003;48.002;7.788;2023-11-21T20:54:11;7.80;99.90
2002;DHT22;1003;48.002;7.788;2023-11-21T20:56:38;7.80;99.90
2002;DHT22;1003;48.002;7.788;2023-11-21T20:59:05;7.80;99.90
2002;DHT22;1003;48.002;7.788;2023-11-21T21:01:33;7.80;99.90
2002;DHT22;1003;48.002;7.788;2023-11-21T21:04:01;7.80;99.90
2002;DHT22;1003;48.002;7.788;2023-11-21T21:06:30;7.80;99.90
2002;DHT22;1003;48.002;7.788;2023-11-21T21:08:57;7.80;99.90
2002;DHT22;1003;48.002;7.788;2023-11-21T21:11:24;7.80;99.90
2002;DHT22;1003;48.002;7.788;2023-11-21T21:13:51;7.70;99.90
2002;DHT22;1003;48.002;7.788;2023-11-21T21:16:20;7.70;99.90
2002;DHT22;1003;48.002;7.788;2023-11-21T21:18:51;7.70;99.90
2002;DHT22;1003;48.002;7.788;2023-11-21T21:21:19;7.70;99.90
2002;DHT22;1003;48.002;7.788;2023-11-21T21:23:49;7.70;99.90
2002;DHT22;1003;48.002;7.788;2023-11-21T21:26:16;7.70;99.90
2002;DHT22;1003;48.002;7.788;2023-11-21T21:28:45;7.60;99.90
2002;DHT22;1003;48.002;7.788;2023-11-21T21:31:13;7.60;99.90
2002;DHT22;1003;48.002;7.788;2023-11-21T21:33:40;7.70;99.90
2002;DHT22;1003;48.002;7.788;2023-11-21T21:36:09;7.70;99.90
2002;DHT22;1003;48.002;7.788;2023-11-21T21:38:36;7.70;99.90
2002;DHT22;1003;48.002;7.788;2023-11-21T21:41:07;7.70;99.90
2002;DHT22;1003;48.002;7.788;2023-11-21T21:43:35;7.70;99.90
2002;DHT22;1003;48.002;7.788;2023-11-21T21:46:03;7.70;99.90
2002;DHT22;1003;48.002;7.788;2023-11-21T21:48:30;7.70;99.90
2002;DHT22;1003;48.002;7.788;2023-11-21T21:50:57;7.70;99.90
2002;DHT22;1003;48.002;7.788;2023-11-21T21:53:24;7.60;99.90
2002;DHT22;1003;48.002;7.788;2023-11-21T21:55:51;7.60;99.90
2002;DHT22;1003;48.002;7.788;2023-11-21T21:58:19;7.60;99.90
2002;DHT22;1003;48.002;7.788;2023-11-21T22:00:46;7.60;99.90
2002;DHT22;1003;48.002;7.788;2023-11-21T22:03:13;7.60;99.90
2002;DHT22;1003;48.002;7.788;2023-11-21T22:05:40;7.60;99.90
2002;DHT22;1003;48.002;7.788;2023-11-21T22:08:07;7.60;99.90
2002;DHT22;1003;48.002;7.788;2023-11-21T22:10:35;7.60;99.90
2002;DHT22;1003;48.002;7.788;2023-11-21T22:13:02;7.60;99.90
2002;DHT22;1003;48.002;7.788;2023-11-21T22:15:30;7.70;99.90
2002;DHT22;1003;48.002;7.788;2023-11-21T22:17:57;7.70;99.90
2002;DHT22;1003;48.002;7.788;2023-11-21T22:20:25;7.70;99.90
2002;DHT22;1003;48.002;7.788;2023-11-21T22:22:52;7.70;99.90
2002;DHT22;1003;48.002;7.788;2023-11-21T22:25:18;7.60;99.90
2002;DHT22;1003;48.002;7.788;2023-11-21T22:27:45;7.60;99.90
2002;DHT22;1003;48.002;7.788;2023-11-21T22:30:13;7.60;99.90
2002;DHT22;1003;48.002;7.788;2023-11-21T22:32:41;7.60;99.90
2002;DHT22;1003;48.002;7.788;2023-11-21T22:35:08;7.60;99.90
2002;DHT22;1003;48.002;7.788;2023-11-21T22:37:35;7.60;99.90
2002;DHT22;1003;48.002;7.788;2023-11-21T22:40:04;7.60;99.90
2002;DHT22;1003;48.002;7.788;2023-11-21T22:42:32;7.60;99.90
2002;DHT22;1003;48.002;7.788;2023-11-21T22:44:59;7.60;99.90
2002;DHT22;1003;48.002;7.788;2023-11-21T22:47:26;7.60;99.90
2002;DHT22;1003;48.002;7.788;2023-11-21T22:49:54;7.60;99.90
2002;DHT22;1003;48.002;7.788;2023-11-21T22:52:21;7.60;99.90
2002;DHT22;1003;48.002;7.788;2023-11-21T22:54:49;7.60;99.90
2002;DHT22;1003;48.002;7.788;2023-11-21T22:57:16;7.60;99.90
2002;DHT22;1003;48.002;7.788;2023-11-21T22:59:43;7.60;99.90
2002;DHT22;1003;48.002;7.788;2023-11-21T23:02:12;7.60;99.90
2002;DHT22;1003;48.002;7.788;2023-11-21T23:04:39;7.60;99.90
2002;DHT22;1003;48.002;7.788;2023-11-21T23:07:09;7.60;99.90
2002;DHT22;1003;48.002;7.788;2023-11-21T23:09:37;7.60;99.90
2002;DHT22;1003;48.002;7.788;2023-11-21T23:12:05;7.60;99.90
2002;DHT22;1003;48.002;7.788;2023-11-21T23:14:32;7.60;99.90
2002;DHT22;1003;48.002;7.788;2023-11-21T23:16:59;7.60;99.90
2002;DHT22;1003;48.002;7.788;2023-11-21T23:19:26;7.60;99.90
2002;DHT22;1003;48.002;7.788;2023-11-21T23:21:53;7.60;99.90
2002;DHT22;1003;48.002;7.788;2023-11-21T23:24:21;7.60;99.90
2002;DHT22;1003;48.002;7.788;2023-11-21T23:26:49;7.60;99.90
2002;DHT22;1003;48.002;7.788;2023-11-21T23:29:16;7.50;99.90
2002;DHT22;1003;48.002;7.788;2023-11-21T23:31:43;7.50;99.90
2002;DHT22;1003;48.002;7.788;2023-11-21T23:34:10;7.50;99.90
2002;DHT22;1003;48.002;7.788;2023-11-21T23:36:38;7.50;99.90
2002;DHT22;1003;48.002;7.788;2023-11-21T23:39:05;7.50;99.90
2002;DHT22;1003;48.002;7.788;2023-11-21T23:41:34;7.50;99.90
2002;DHT22;1003;48.002;7.788;2023-11-21T23:44:01;7.50;99.90
2002;DHT22;1003;48.002;7.788;2023-11-21T23:46:29;7.50;99.90
2002;DHT22;1003;48.002;7.788;2023-11-21T23:49:00;7.50;99.90
2002;DHT22;1003;48.002;7.788;2023-11-21T23:51:28;7.50;99.90
2002;DHT22;1003;48.002;7.788;2023-11-21T23:53:55;7.50;99.90
2002;DHT22;1003;48.002;7.788;2023-11-21T23:56:23;7.50;99.90
2002;DHT22;1003;48.002;7.788;2023-11-21T23:58:51;7.50;99.90
